createdAt,value
2023-05-19T00:00:30.859Z,12.80
2023-05-19T00:02:58.199Z,12.90
2023-05-19T00:05:25.177Z,12.90
2023-05-19T00:07:54.227Z,12.90
2023-05-19T00:10:21.177Z,12.90
2023-05-19T00:12:48.437Z,12.80
2023-05-19T00:15:15.700Z,12.90
2023-05-19T00:17:42.583Z,12.90
2023-05-19T00:20:09.805Z,12.90
2023-05-19T00:22:37.024Z,12.90
2023-05-19T00:25:04.088Z,12.80
2023-05-19T00:27:31.018Z,12.90
2023-05-19T00:29:57.742Z,12.80
2023-05-19T00:32:24.457Z,12.80
2023-05-19T00:34:51.181Z,12.80
2023-05-19T00:37:17.933Z,12.70
2023-05-19T00:39:44.632Z,12.60
2023-05-19T00:42:11.369Z,12.60
2023-05-19T00:44:41.723Z,12.60
2023-05-19T00:47:08.969Z,12.60
2023-05-19T00:49:36.202Z,12.50
2023-05-19T00:52:03.425Z,12.50
2023-05-19T00:54:30.217Z,12.40
2023-05-19T00:56:58.314Z,12.40
2023-05-19T00:59:25.196Z,12.40
2023-05-19T01:01:52.173Z,12.30
2023-05-19T01:04:20.152Z,12.30
2023-05-19T01:06:48.265Z,12.20
2023-05-19T01:09:15.881Z,12.20
2023-05-19T01:11:42.640Z,12.20
2023-05-19T01:14:09.459Z,12.20
2023-05-19T01:17:09.937Z,12.20
2023-05-19T01:20:02.135Z,12.10
2023-05-19T01:23:01.689Z,12.10
2023-05-19T01:25:56.938Z,12.10
2023-05-19T01:28:55.263Z,12.10
2023-05-19T01:31:23.923Z,12.10
2023-05-19T01:33:53.383Z,12.10
2023-05-19T01:36:22.627Z,12.10
2023-05-19T01:38:55.965Z,12.10
2023-05-19T01:41:22.990Z,12.10
2023-05-19T01:43:50.438Z,12.10
2023-05-19T01:46:18.895Z,12.10
2023-05-19T01:48:46.576Z,12.10
2023-05-19T01:51:13.323Z,12.00
2023-05-19T01:53:40.071Z,12.10
2023-05-19T01:56:07.453Z,12.10
2023-05-19T01:58:44.543Z,12.00
2023-05-19T02:01:35.563Z,12.00
2023-05-19T02:04:05.660Z,12.00
2023-05-19T02:06:57.833Z,11.90
2023-05-19T02:09:37.623Z,12.00
2023-05-19T02:12:12.936Z,11.90
2023-05-19T02:14:45.329Z,11.90
2023-05-19T02:17:16.029Z,11.90
2023-05-19T02:19:43.385Z,11.90
2023-05-19T02:22:10.233Z,11.90
2023-05-19T02:24:37.637Z,11.90
2023-05-19T02:27:04.599Z,11.80
2023-05-19T02:29:31.296Z,11.80
2023-05-19T02:31:58.994Z,11.80
2023-05-19T02:34:25.880Z,11.80
2023-05-19T02:36:52.650Z,11.80
2023-05-19T02:39:19.362Z,11.80
2023-05-19T02:41:46.086Z,11.80
2023-05-19T02:44:12.794Z,11.80
2023-05-19T02:46:39.502Z,11.90
2023-05-19T02:49:07.223Z,11.80
2023-05-19T02:51:33.913Z,11.80
2023-05-19T02:54:00.654Z,11.70
2023-05-19T02:56:28.142Z,11.70
2023-05-19T02:58:54.838Z,11.70
2023-05-19T03:01:22.906Z,11.70
2023-05-19T03:03:49.727Z,11.70
2023-05-19T03:06:17.997Z,11.70
2023-05-19T03:08:45.062Z,11.70
2023-05-19T03:11:11.847Z,11.70
2023-05-19T03:13:38.547Z,11.60
2023-05-19T03:16:08.007Z,11.60
2023-05-19T03:18:35.094Z,11.60
2023-05-19T03:21:01.767Z,11.60
2023-05-19T03:23:28.479Z,11.60
2023-05-19T03:25:56.274Z,11.60
2023-05-19T03:28:23.402Z,11.60
2023-05-19T03:30:50.764Z,11.60
2023-05-19T03:33:17.660Z,11.60
2023-05-19T03:35:44.625Z,11.60
2023-05-19T03:38:11.463Z,11.60
2023-05-19T03:40:38.191Z,11.60
2023-05-19T03:43:04.920Z,11.60
2023-05-19T03:45:31.639Z,11.50
2023-05-19T03:47:58.397Z,11.60
2023-05-19T03:50:25.144Z,11.60
2023-05-19T03:52:51.892Z,11.70
2023-05-19T03:55:20.172Z,11.70
2023-05-19T03:57:47.248Z,11.70
2023-05-19T04:00:14.375Z,11.70
2023-05-19T04:02:41.250Z,11.70
2023-05-19T04:05:08.530Z,11.70
2023-05-19T04:07:35.875Z,11.80
2023-05-19T04:10:05.397Z,11.80
2023-05-19T04:12:32.997Z,11.80
2023-05-19T04:15:00.101Z,11.80
2023-05-19T04:17:27.834Z,11.90
2023-05-19T04:19:55.090Z,12.00
2023-05-19T04:22:21.845Z,12.00
2023-05-19T04:24:48.935Z,12.10
2023-05-19T04:27:16.345Z,12.10
2023-05-19T04:29:43.358Z,12.10
2023-05-19T04:32:10.693Z,12.20
2023-05-19T04:34:40.707Z,12.20
2023-05-19T04:37:11.111Z,12.20
2023-05-19T04:39:40.238Z,12.30
2023-05-19T04:42:06.934Z,12.30
2023-05-19T04:44:33.651Z,12.40
2023-05-19T04:47:00.424Z,12.40
2023-05-19T04:49:27.136Z,12.40
2023-05-19T04:51:55.916Z,12.40
2023-05-19T04:54:22.742Z,12.50
2023-05-19T04:56:49.423Z,12.50
2023-05-19T04:59:16.443Z,12.50
2023-05-19T05:01:43.361Z,12.70
2023-05-19T05:04:10.171Z,12.70
2023-05-19T05:06:38.444Z,12.80
2023-05-19T05:09:05.170Z,12.80
2023-05-19T05:11:32.192Z,12.80
2023-05-19T05:13:59.298Z,12.80
2023-05-19T05:16:26.611Z,12.80
2023-05-19T05:18:53.723Z,12.90
2023-05-19T05:21:20.734Z,12.90
2023-05-19T05:23:47.652Z,13.00
2023-05-19T05:26:23.152Z,13.00
2023-05-19T05:28:50.197Z,13.10
2023-05-19T05:31:17.020Z,13.20
2023-05-19T05:33:44.098Z,13.20
2023-05-19T05:36:10.849Z,13.30
2023-05-19T05:38:37.564Z,13.40
2023-05-19T05:41:04.439Z,13.40
2023-05-19T05:43:31.182Z,13.40
2023-05-19T05:45:57.901Z,13.40
2023-05-19T05:48:25.117Z,13.50
2023-05-19T05:50:52.832Z,13.50
2023-05-19T05:53:20.707Z,13.50
2023-05-19T05:55:48.170Z,13.60
2023-05-19T05:58:15.605Z,13.60
2023-05-19T06:00:48.528Z,13.60
2023-05-19T06:05:43.582Z,13.70
2023-05-19T06:08:10.357Z,13.80
2023-05-19T06:10:38.930Z,13.90
2023-05-19T06:13:05.864Z,14.00
2023-05-19T06:15:32.625Z,14.00
2023-05-19T06:17:59.552Z,14.00
2023-05-19T06:20:26.572Z,14.20
2023-05-19T06:22:53.293Z,14.30
2023-05-19T06:25:20.669Z,14.40
2023-05-19T06:27:47.428Z,14.40
2023-05-19T06:30:14.497Z,14.60
2023-05-19T06:32:41.378Z,14.60
2023-05-19T06:35:08.356Z,14.70
2023-05-19T06:37:35.182Z,14.80
2023-05-19T06:40:01.861Z,14.80
2023-05-19T06:42:28.652Z,14.90
2023-05-19T06:44:55.978Z,14.90
2023-05-19T06:47:22.833Z,15.00
2023-05-19T06:49:51.563Z,15.00
2023-05-19T06:52:18.266Z,15.10
2023-05-19T06:54:45.012Z,15.10
2023-05-19T06:57:11.767Z,15.10
2023-05-19T06:59:40.821Z,15.10
2023-05-19T07:02:07.939Z,15.10
2023-05-19T07:04:35.150Z,15.20
2023-05-19T07:07:02.091Z,15.00
2023-05-19T07:09:28.932Z,15.00
2023-05-19T07:11:56.420Z,15.00
2023-05-19T07:14:23.574Z,14.90
2023-05-19T07:16:50.448Z,15.00
2023-05-19T07:19:19.609Z,15.00
2023-05-19T07:21:47.088Z,15.10
2023-05-19T07:24:13.848Z,15.20
2023-05-19T07:26:41.382Z,15.20
2023-05-19T07:29:08.315Z,15.30
2023-05-19T07:31:35.092Z,15.30
2023-05-19T07:34:03.040Z,15.30
2023-05-19T07:36:29.809Z,15.40
2023-05-19T07:38:56.561Z,15.70
2023-05-19T07:41:23.300Z,15.80
2023-05-19T07:43:50.135Z,16.00
2023-05-19T07:46:16.924Z,16.00
2023-05-19T07:48:43.742Z,15.90
2023-05-19T07:51:12.108Z,16.00
2023-05-19T07:53:38.948Z,16.10
2023-05-19T07:56:05.818Z,16.20
2023-05-19T07:58:32.573Z,16.40
2023-05-19T08:00:59.952Z,16.70
2023-05-19T08:03:27.318Z,16.90
2023-05-19T08:05:54.192Z,17.10
2023-05-19T08:08:21.937Z,17.40
2023-05-19T08:10:48.714Z,17.60
2023-05-19T08:13:15.494Z,17.70
2023-05-19T08:15:42.737Z,17.60
2023-05-19T08:18:09.707Z,17.50
2023-05-19T08:20:37.602Z,17.60
2023-05-19T08:23:04.349Z,17.60
2023-05-19T08:25:31.313Z,17.70
2023-05-19T08:27:58.053Z,17.80
2023-05-19T08:30:24.909Z,17.80
2023-05-19T08:32:51.765Z,17.40
2023-05-19T08:35:18.641Z,17.40
2023-05-19T08:37:45.334Z,17.70
2023-05-19T08:40:16.543Z,18.00
2023-05-19T08:42:44.329Z,18.20
2023-05-19T08:45:11.247Z,18.30
2023-05-19T08:47:38.176Z,18.00
2023-05-19T08:50:10.919Z,17.90
2023-05-19T08:52:53.531Z,17.80
2023-05-19T08:55:34.005Z,17.90
2023-05-19T08:58:04.956Z,17.80
2023-05-19T09:00:32.499Z,17.80
2023-05-19T09:03:16.939Z,18.00
2023-05-19T09:05:46.470Z,17.80
2023-05-19T09:08:13.754Z,17.80
2023-05-19T09:10:40.835Z,17.90
2023-05-19T09:13:07.682Z,18.00
2023-05-19T09:15:36.818Z,18.40
2023-05-19T09:18:11.573Z,18.50
2023-05-19T09:20:41.487Z,18.70
2023-05-19T09:23:13.618Z,18.90
2023-05-19T09:26:08.083Z,19.00
2023-05-19T09:28:37.778Z,19.00
2023-05-19T09:31:09.183Z,19.00
2023-05-19T09:33:38.499Z,18.90
2023-05-19T09:36:06.505Z,18.80
2023-05-19T09:38:33.611Z,18.90
2023-05-19T09:41:01.021Z,18.80
2023-05-19T09:43:33.369Z,18.80
2023-05-19T09:46:07.348Z,19.00
2023-05-19T09:48:35.537Z,19.20
2023-05-19T09:51:08.079Z,19.30
2023-05-19T09:53:35.491Z,19.50
2023-05-19T09:56:04.002Z,19.60
2023-05-19T09:58:37.492Z,19.70
2023-05-19T10:01:05.059Z,19.70
2023-05-19T10:03:35.134Z,19.50
2023-05-19T10:06:04.181Z,19.70
2023-05-19T10:08:32.232Z,19.60
2023-05-19T10:11:00.046Z,19.60
2023-05-19T10:13:29.060Z,19.70
2023-05-19T10:15:59.377Z,19.80
2023-05-19T10:18:30.299Z,19.80
2023-05-19T10:20:58.435Z,20.00
2023-05-19T10:23:26.007Z,20.00
2023-05-19T10:25:56.816Z,20.20
2023-05-19T10:28:28.019Z,20.20
2023-05-19T10:30:58.669Z,20.30
2023-05-19T10:33:50.067Z,20.40
2023-05-19T10:36:53.491Z,20.60
2023-05-19T10:39:28.046Z,20.80
2023-05-19T10:42:13.842Z,20.60
2023-05-19T10:45:14.133Z,20.70
2023-05-19T10:47:41.996Z,20.60
2023-05-19T10:50:09.853Z,21.00
2023-05-19T10:52:39.499Z,21.20
2023-05-19T10:55:17.694Z,21.30
2023-05-19T10:57:54.488Z,21.20
2023-05-19T11:00:28.728Z,20.90
2023-05-19T11:03:15.651Z,20.90
2023-05-19T11:05:45.538Z,20.80
2023-05-19T11:08:13.210Z,20.70
2023-05-19T11:10:43.415Z,20.80
2023-05-19T11:13:19.866Z,20.70
2023-05-19T11:15:46.611Z,20.80
2023-05-19T11:18:16.145Z,20.80
2023-05-19T11:20:44.230Z,20.90
2023-05-19T11:23:19.508Z,21.00
2023-05-19T11:25:51.417Z,21.20
2023-05-19T11:28:20.116Z,21.20
2023-05-19T11:30:52.138Z,21.10
2023-05-19T11:33:20.642Z,21.10
2023-05-19T11:35:49.557Z,21.00
2023-05-19T11:38:18.985Z,21.00
2023-05-19T11:40:47.692Z,21.20
2023-05-19T11:43:14.423Z,21.40
2023-05-19T11:45:41.414Z,21.30
2023-05-19T11:48:12.450Z,21.50
2023-05-19T11:50:41.620Z,21.30
2023-05-19T11:53:12.009Z,21.20
2023-05-19T11:55:44.557Z,21.30
2023-05-19T11:58:11.337Z,21.50
2023-05-19T12:00:41.148Z,21.50
2023-05-19T12:03:09.143Z,21.60
2023-05-19T12:05:42.831Z,21.50
2023-05-19T12:08:11.003Z,21.60
2023-05-19T12:10:39.205Z,21.60
2023-05-19T12:13:09.018Z,21.40
2023-05-19T12:15:36.575Z,21.30
2023-05-19T12:18:03.888Z,21.40
2023-05-19T12:20:37.681Z,21.60
2023-05-19T12:23:05.027Z,21.60
2023-05-19T12:25:32.353Z,21.50
2023-05-19T12:28:02.789Z,21.50
2023-05-19T12:30:31.522Z,21.60
2023-05-19T12:32:58.638Z,21.90
2023-05-19T12:35:33.710Z,21.80
2023-05-19T12:38:06.931Z,22.20
2023-05-19T12:40:38.565Z,22.70
2023-05-19T12:43:06.595Z,22.90
2023-05-19T12:45:37.256Z,22.80
2023-05-19T12:48:06.671Z,22.80
2023-05-19T12:50:34.395Z,22.90
2023-05-19T12:53:01.951Z,22.50
2023-05-19T12:55:28.826Z,22.40
2023-05-19T12:57:57.955Z,22.40
2023-05-19T13:00:28.626Z,22.30
2023-05-19T13:03:05.023Z,22.20
2023-05-19T13:05:38.220Z,22.10
2023-05-19T13:08:12.887Z,22.10
2023-05-19T13:10:41.565Z,21.80
2023-05-19T13:13:09.239Z,21.80
2023-05-19T13:15:40.303Z,21.80
2023-05-19T13:18:08.798Z,21.90
2023-05-19T13:20:41.792Z,22.10
2023-05-19T13:23:10.803Z,22.60
2023-05-19T13:25:37.524Z,22.90
2023-05-19T13:28:05.829Z,23.00
2023-05-19T13:30:34.647Z,22.70
2023-05-19T13:33:02.224Z,22.50
2023-05-19T13:35:29.394Z,22.40
2023-05-19T13:37:56.195Z,22.60
2023-05-19T13:40:23.924Z,22.50
2023-05-19T13:42:50.787Z,22.50
2023-05-19T13:45:18.334Z,22.60
2023-05-19T13:47:45.173Z,22.50
2023-05-19T13:50:12.385Z,22.80
2023-05-19T13:52:39.265Z,22.80
2023-05-19T13:55:07.479Z,22.60
2023-05-19T13:57:34.229Z,22.40
2023-05-19T14:00:03.806Z,22.40
2023-05-19T14:02:31.247Z,22.50
2023-05-19T14:04:58.126Z,22.30
2023-05-19T14:07:25.526Z,22.50
2023-05-19T14:09:52.696Z,22.20
2023-05-19T14:12:20.221Z,22.00
2023-05-19T14:14:50.101Z,21.90
2023-05-19T14:17:16.896Z,21.90
2023-05-19T14:19:43.554Z,22.30
2023-05-19T14:22:10.297Z,22.80
2023-05-19T14:24:37.082Z,23.00
2023-05-19T14:27:03.977Z,23.30
2023-05-19T14:29:33.886Z,23.30
2023-05-19T14:32:00.849Z,23.10
2023-05-19T14:34:27.616Z,22.80
2023-05-19T14:36:54.427Z,22.50
2023-05-19T14:39:21.181Z,22.70
2023-05-19T14:41:50.902Z,22.70
2023-05-19T14:44:17.666Z,22.80
2023-05-19T14:46:44.399Z,22.90
2023-05-19T14:49:11.669Z,22.80
2023-05-19T14:51:39.742Z,22.60
2023-05-19T14:54:06.469Z,22.20
2023-05-19T14:56:33.156Z,22.00
2023-05-19T14:58:59.917Z,21.70
2023-05-19T15:01:26.656Z,21.50
2023-05-19T15:03:53.506Z,21.50
2023-05-19T15:06:20.346Z,21.20
2023-05-19T15:08:47.241Z,21.20
2023-05-19T15:11:14.050Z,21.00
2023-05-19T15:13:40.909Z,21.00
2023-05-19T15:16:17.723Z,21.00
2023-05-19T15:18:45.183Z,20.90
2023-05-19T15:21:12.228Z,20.80
2023-05-19T15:23:38.924Z,20.70
2023-05-19T15:26:05.682Z,20.50
2023-05-19T15:28:33.493Z,20.40
2023-05-19T15:31:00.313Z,20.50
2023-05-19T15:33:27.197Z,20.60
2023-05-19T15:35:54.262Z,20.40
2023-05-19T15:38:21.095Z,20.40
2023-05-19T15:40:48.037Z,20.30
2023-05-19T15:43:14.950Z,20.30
2023-05-19T15:45:42.156Z,20.30
2023-05-19T15:48:08.988Z,20.20
2023-05-19T15:50:36.456Z,20.30
2023-05-19T15:53:03.651Z,20.40
2023-05-19T15:55:30.406Z,20.30
2023-05-19T15:57:57.098Z,20.20
2023-05-19T16:00:23.877Z,20.20
2023-05-19T16:02:51.133Z,20.30
2023-05-19T16:05:18.122Z,20.30
2023-05-19T16:07:45.099Z,20.40
2023-05-19T16:10:11.948Z,20.40
2023-05-19T16:12:38.792Z,20.30
2023-05-19T16:15:06.017Z,20.40
2023-05-19T16:17:32.950Z,20.40
2023-05-19T16:19:59.675Z,20.50
2023-05-19T16:22:27.124Z,20.60
2023-05-19T16:24:53.851Z,20.70
2023-05-19T16:27:20.612Z,20.50
2023-05-19T16:29:47.325Z,20.40
2023-05-19T16:32:14.231Z,20.40
2023-05-19T16:34:41.076Z,20.30
2023-05-19T16:37:07.879Z,20.20
2023-05-19T16:39:36.884Z,20.00
2023-05-19T16:42:04.674Z,19.90
2023-05-19T16:44:31.418Z,19.90
2023-05-19T16:46:58.176Z,19.90
2023-05-19T16:49:24.880Z,19.80
2023-05-19T16:51:52.920Z,19.80
2023-05-19T16:54:20.816Z,19.80
2023-05-19T16:56:47.642Z,19.70
2023-05-19T16:59:14.336Z,19.70
2023-05-19T17:01:41.344Z,19.70
2023-05-19T17:04:08.283Z,19.70
2023-05-19T17:06:34.988Z,19.60
2023-05-19T17:09:02.083Z,19.60
2023-05-19T17:11:28.774Z,19.60
2023-05-19T17:13:55.581Z,19.60
2023-05-19T17:16:23.425Z,19.60
2023-05-19T17:18:50.360Z,19.60
2023-05-19T17:21:17.589Z,19.70
2023-05-19T17:23:44.413Z,19.60
2023-05-19T17:26:11.477Z,19.60
2023-05-19T17:28:38.328Z,19.60
2023-05-19T17:31:15.139Z,19.50
2023-05-19T17:33:41.975Z,19.40
2023-05-19T17:36:09.172Z,19.30
2023-05-19T17:38:40.129Z,19.40
2023-05-19T17:41:12.071Z,19.40
2023-05-19T17:43:40.889Z,19.30
2023-05-19T17:46:08.646Z,19.30
2023-05-19T17:48:36.301Z,19.20
2023-05-19T17:51:05.660Z,19.20
2023-05-19T17:53:33.495Z,19.20
2023-05-19T17:56:02.002Z,19.20
2023-05-19T17:58:29.099Z,19.20
2023-05-19T18:00:56.385Z,19.30
2023-05-19T18:03:23.585Z,19.20
2023-05-19T18:05:51.131Z,19.20
2023-05-19T18:08:18.396Z,19.00
2023-05-19T18:10:46.129Z,19.00
2023-05-19T18:13:15.759Z,18.90
2023-05-19T18:15:42.826Z,18.80
2023-05-19T18:18:10.931Z,18.80
2023-05-19T18:20:38.725Z,18.80
2023-05-19T18:23:05.930Z,18.70
2023-05-19T18:25:32.918Z,18.60
2023-05-19T18:27:59.609Z,18.70
2023-05-19T18:30:26.446Z,18.60
2023-05-19T18:32:53.186Z,18.60
2023-05-19T18:35:21.249Z,18.50
2023-05-19T18:37:47.937Z,18.40
2023-05-19T18:40:14.680Z,18.40
2023-05-19T18:42:41.371Z,18.30
2023-05-19T18:45:08.506Z,18.30
2023-05-19T18:47:35.281Z,18.30
2023-05-19T18:50:02.074Z,18.20
2023-05-19T18:52:29.063Z,18.20
2023-05-19T18:54:55.879Z,18.20
2023-05-19T18:57:22.564Z,18.20
2023-05-19T18:59:49.243Z,18.10
2023-05-19T19:02:16.056Z,18.00
2023-05-19T19:04:42.853Z,18.00
2023-05-19T19:07:09.618Z,18.00
2023-05-19T19:09:36.436Z,17.90
2023-05-19T19:12:03.260Z,17.90
2023-05-19T19:14:29.978Z,17.80
2023-05-19T19:16:56.707Z,17.80
2023-05-19T19:19:23.853Z,17.80
2023-05-19T19:21:50.666Z,17.70
2023-05-19T19:24:17.340Z,17.70
2023-05-19T19:26:44.068Z,17.60
2023-05-19T19:29:10.749Z,17.60
2023-05-19T19:31:37.517Z,17.60
2023-05-19T19:34:08.986Z,17.60
2023-05-19T19:36:36.204Z,17.50
2023-05-19T19:39:02.930Z,17.50
2023-05-19T19:41:30.001Z,17.50
2023-05-19T19:43:56.685Z,17.50
2023-05-19T19:46:23.394Z,17.50
2023-05-19T19:48:50.155Z,17.50
2023-05-19T19:51:16.845Z,17.40
2023-05-19T19:53:43.619Z,17.40
2023-05-19T19:56:10.518Z,17.40
2023-05-19T19:58:37.258Z,17.40
2023-05-19T20:01:05.744Z,17.30
2023-05-19T20:03:33.360Z,17.30
2023-05-19T20:06:00.418Z,17.30
2023-05-19T20:08:27.209Z,17.20
2023-05-19T20:10:54.027Z,17.20
2023-05-19T20:13:20.911Z,17.20
2023-05-19T20:15:47.737Z,17.10
2023-05-19T20:18:14.573Z,17.10
2023-05-19T20:20:42.216Z,17.10
2023-05-19T20:23:09.241Z,17.10
2023-05-19T20:25:54.381Z,17.10
2023-05-19T20:28:25.861Z,17.10
2023-05-19T20:30:52.588Z,17.00
2023-05-19T20:33:19.314Z,17.00
2023-05-19T20:35:46.152Z,17.00
2023-05-19T20:38:12.873Z,17.00
2023-05-19T20:40:39.554Z,17.00
2023-05-19T20:43:06.293Z,17.00
2023-05-19T20:45:33.248Z,17.00
2023-05-19T20:48:00.666Z,16.90
2023-05-19T20:50:27.516Z,16.90
2023-05-19T20:52:54.366Z,16.90
2023-05-19T20:55:21.219Z,16.90
2023-05-19T20:57:47.899Z,16.90
2023-05-19T21:00:14.913Z,16.90
2023-05-19T21:02:41.635Z,16.90
2023-05-19T21:05:08.668Z,16.90
2023-05-19T21:07:35.500Z,16.90
2023-05-19T21:10:02.348Z,16.80
2023-05-19T21:12:33.790Z,16.80
2023-05-19T21:15:01.461Z,16.80
2023-05-19T21:17:28.309Z,16.80
2023-05-19T21:19:57.966Z,16.80
2023-05-19T21:22:26.058Z,16.70
2023-05-19T21:24:56.370Z,16.70
2023-05-19T21:27:23.204Z,16.70
2023-05-19T21:29:54.121Z,16.70
2023-05-19T21:32:21.652Z,16.70
2023-05-19T21:34:48.400Z,16.70
2023-05-19T21:37:17.154Z,16.70
2023-05-19T21:39:44.322Z,16.60
2023-05-19T21:42:11.061Z,16.60
2023-05-19T21:44:37.875Z,16.60
2023-05-19T21:47:04.619Z,16.50
2023-05-19T21:49:31.593Z,16.50
2023-05-19T21:51:58.528Z,16.50
2023-05-19T21:54:25.235Z,16.50
2023-05-19T21:56:51.959Z,16.40
2023-05-19T21:59:19.447Z,16.30
2023-05-19T22:01:46.801Z,16.30
2023-05-19T22:04:15.970Z,16.30
2023-05-19T22:06:43.366Z,16.20
2023-05-19T22:09:10.222Z,16.20
2023-05-19T22:11:36.988Z,16.20
2023-05-19T22:14:03.696Z,16.10
2023-05-19T22:16:31.046Z,16.10
2023-05-19T22:18:57.868Z,16.00
2023-05-19T22:21:24.676Z,16.00
2023-05-19T22:23:52.301Z,16.00
2023-05-19T22:26:19.051Z,16.00
2023-05-19T22:28:45.769Z,15.90
2023-05-19T22:31:12.554Z,15.90
2023-05-19T22:33:39.250Z,15.80
2023-05-19T22:36:06.369Z,15.80
2023-05-19T22:38:33.103Z,15.80
2023-05-19T22:40:59.848Z,15.80
2023-05-19T22:43:26.558Z,15.80
2023-05-19T22:45:53.336Z,15.80
2023-05-19T22:48:20.479Z,15.80
2023-05-19T22:50:47.168Z,15.80
2023-05-19T22:53:13.920Z,15.70
2023-05-19T22:55:40.648Z,15.70
2023-05-19T22:58:07.408Z,15.70
2023-05-19T23:00:34.093Z,15.70
2023-05-19T23:03:00.959Z,15.70
2023-05-19T23:05:27.676Z,15.70
2023-05-19T23:07:54.631Z,15.70
2023-05-19T23:10:21.330Z,15.70
2023-05-19T23:12:48.782Z,15.70
2023-05-19T23:15:15.675Z,15.70
2023-05-19T23:17:42.427Z,15.70
2023-05-19T23:20:09.679Z,15.70
2023-05-19T23:22:36.412Z,15.60
2023-05-19T23:25:07.470Z,15.70
2023-05-19T23:27:35.539Z,15.70
2023-05-19T23:30:03.312Z,15.70
2023-05-19T23:32:30.149Z,15.70
2023-05-19T23:34:56.895Z,15.70
2023-05-19T23:37:23.595Z,15.70
2023-05-19T23:39:50.488Z,15.70
2023-05-19T23:42:17.278Z,15.70
2023-05-19T23:44:44.026Z,15.70
2023-05-19T23:47:10.913Z,15.70
2023-05-19T23:49:37.592Z,15.60
2023-05-19T23:52:04.361Z,15.60
2023-05-19T23:54:31.090Z,15.60
2023-05-19T23:56:58.389Z,15.60
2023-05-19T23:59:25.269Z,15.60
